createdAt,value
2022-11-29T00:02:59.582Z,21.02
2022-11-29T00:08:01.442Z,19.45
2022-11-29T00:13:03.280Z,20.70
2022-11-29T00:18:06.556Z,19.20
2022-11-29T00:23:08.373Z,20.17
2022-11-29T00:28:10.180Z,18.50
2022-11-29T00:33:11.828Z,18.58
2022-11-29T00:38:13.522Z,20.15
2022-11-29T00:43:15.194Z,16.80
2022-11-29T00:48:17.171Z,16.85
2022-11-29T00:53:19.031Z,18.00
2022-11-29T00:58:21.361Z,15.95
2022-11-29T01:03:23.988Z,19.35
2022-11-29T01:08:25.638Z,17.73
2022-11-29T01:13:27.349Z,19.73
2022-11-29T01:18:30.452Z,18.35
2022-11-29T01:23:32.535Z,15.68
2022-11-29T01:28:37.872Z,15.57
2022-11-29T01:33:40.269Z,18.15
2022-11-29T01:38:45.041Z,17.38
2022-11-29T01:43:58.868Z,16.65
2022-11-29T01:49:07.509Z,15.23
2022-11-29T01:54:10.942Z,19.08
2022-11-29T01:59:17.040Z,17.42
2022-11-29T02:04:25.594Z,16.70
2022-11-29T02:09:27.493Z,17.52
2022-11-29T02:14:39.132Z,18.03
2022-11-29T02:20:18.868Z,17.02
2022-11-29T02:25:28.132Z,17.67
2022-11-29T02:31:03.181Z,16.25
2022-11-29T02:36:14.185Z,19.98
2022-11-29T02:41:46.005Z,17.40
2022-11-29T02:47:15.814Z,18.67
2022-11-29T02:52:37.758Z,18.40
2022-11-29T02:57:50.063Z,19.85
2022-11-29T03:02:51.889Z,19.13
2022-11-29T03:08:15.478Z,20.00
2022-11-29T03:13:25.224Z,20.27
2022-11-29T03:18:38.646Z,22.00
2022-11-29T03:23:45.801Z,20.00
2022-11-29T03:29:01.166Z,21.35
2022-11-29T03:34:45.090Z,21.08
2022-11-29T03:39:57.399Z,22.65
2022-11-29T03:45:07.869Z,20.70
2022-11-29T03:50:16.484Z,19.58
2022-11-29T03:56:04.416Z,21.17
2022-11-29T04:01:20.877Z,22.55
2022-11-29T04:06:46.312Z,20.00
2022-11-29T04:11:58.760Z,21.38
2022-11-29T04:17:25.377Z,19.92
2022-11-29T04:22:43.326Z,18.13
2022-11-29T04:28:27.890Z,19.40
2022-11-29T04:33:38.577Z,20.13
2022-11-29T04:38:53.574Z,18.23
2022-11-29T04:44:20.143Z,17.88
2022-11-29T04:49:33.954Z,19.42
2022-11-29T04:54:59.055Z,18.88
2022-11-29T05:00:10.677Z,20.80
2022-11-29T05:05:27.646Z,21.02
2022-11-29T05:10:59.678Z,20.55
2022-11-29T05:16:28.826Z,20.67
2022-11-29T05:21:55.228Z,22.27
2022-11-29T05:27:29.355Z,20.23
2022-11-29T05:32:57.789Z,20.58
2022-11-29T05:38:15.169Z,20.83
2022-11-29T05:43:22.650Z,20.90
2022-11-29T05:48:36.611Z,18.42
2022-11-29T05:53:51.486Z,20.17
2022-11-29T05:59:05.632Z,21.73
2022-11-29T06:04:17.758Z,23.73
2022-11-29T06:09:33.838Z,23.10
2022-11-29T06:14:57.209Z,25.30
2022-11-29T06:20:13.025Z,12.10
2022-11-29T06:25:30.749Z,14.77
2022-11-29T06:31:04.520Z,14.70
2022-11-29T06:36:12.596Z,16.08
2022-11-29T06:41:21.641Z,17.98
2022-11-29T06:46:35.672Z,19.98
2022-11-29T06:51:48.908Z,21.05
2022-11-29T07:02:10.756Z,22.10
2022-11-29T07:07:15.615Z,25.67
2022-11-29T07:12:18.319Z,22.27
2022-11-29T07:17:30.915Z,22.75
2022-11-29T07:22:44.266Z,24.50
2022-11-29T07:28:16.146Z,23.45
2022-11-29T07:33:53.774Z,23.33
2022-11-29T07:39:19.192Z,22.90
2022-11-29T07:44:44.818Z,23.88
2022-11-29T07:49:46.757Z,23.33
2022-11-29T07:54:48.637Z,23.88
2022-11-29T07:59:50.259Z,23.02
2022-11-29T08:04:52.048Z,25.02
2022-11-29T08:09:53.878Z,26.10
2022-11-29T08:14:55.512Z,23.88
2022-11-29T08:20:00.021Z,25.05
2022-11-29T08:25:07.124Z,23.70
2022-11-29T08:30:09.166Z,23.08
2022-11-29T08:35:10.893Z,23.37
2022-11-29T08:40:13.853Z,26.27
2022-11-29T08:45:15.993Z,25.95
2022-11-29T08:50:18.202Z,26.90
2022-11-29T08:55:23.145Z,25.70
2022-11-29T09:00:25.047Z,26.50
2022-11-29T09:05:26.740Z,26.58
2022-11-29T09:10:28.433Z,25.77
2022-11-29T09:15:30.104Z,26.08
2022-11-29T09:20:32.767Z,24.38
2022-11-29T09:25:34.573Z,24.88
2022-11-29T09:30:37.998Z,23.88
2022-11-29T09:35:39.741Z,25.38
2022-11-29T09:40:51.799Z,24.85
2022-11-29T09:46:23.315Z,25.05
2022-11-29T09:51:52.848Z,26.20
2022-11-29T09:56:56.745Z,22.77
2022-11-29T10:02:08.937Z,22.88
2022-11-29T10:07:22.143Z,25.42
2022-11-29T10:12:30.513Z,23.63
2022-11-29T10:18:22.049Z,23.95
2022-11-29T10:23:31.187Z,22.70
2022-11-29T10:28:34.858Z,23.45
2022-11-29T10:33:41.176Z,23.85
2022-11-29T10:38:46.019Z,24.15
2022-11-29T10:43:50.373Z,24.58
2022-11-29T10:48:52.938Z,24.30
2022-11-29T10:53:56.155Z,23.90
2022-11-29T10:59:05.207Z,23.65
2022-11-29T11:04:14.054Z,25.75
2022-11-29T11:09:34.410Z,22.25
2022-11-29T11:14:38.684Z,23.15
2022-11-29T11:19:40.508Z,23.80
2022-11-29T11:24:44.584Z,22.40
2022-11-29T11:29:46.549Z,23.15
2022-11-29T11:34:56.130Z,22.95
2022-11-29T11:40:00.972Z,22.92
2022-11-29T11:45:25.863Z,21.55
2022-11-29T11:50:31.395Z,21.33
2022-11-29T11:55:43.174Z,20.70
2022-11-29T12:01:05.700Z,20.23
2022-11-29T12:06:28.736Z,18.70
2022-11-29T12:11:42.180Z,19.95
2022-11-29T12:16:47.201Z,18.77
2022-11-29T12:21:55.814Z,19.17
2022-11-29T12:27:04.928Z,20.50
2022-11-29T12:32:17.283Z,21.30
2022-11-29T12:37:40.358Z,20.02
2022-11-29T12:42:59.505Z,20.55
2022-11-29T12:48:20.048Z,19.08
2022-11-29T12:53:27.069Z,22.35
2022-11-29T12:58:51.866Z,22.98
2022-11-29T13:04:09.407Z,23.48
2022-11-29T13:09:17.058Z,23.58
2022-11-29T13:14:42.721Z,23.30
2022-11-29T13:19:53.409Z,24.25
2022-11-29T13:25:01.070Z,23.02
2022-11-29T13:30:04.813Z,23.40
2022-11-29T13:35:19.995Z,24.90
2022-11-29T13:40:30.279Z,23.17
2022-11-29T13:45:42.139Z,16.38
2022-11-29T13:50:45.180Z,21.70
2022-11-29T14:00:52.064Z,23.08
2022-11-29T14:06:14.595Z,22.83
2022-11-29T14:11:16.269Z,20.23
2022-11-29T14:16:36.310Z,20.88
2022-11-29T14:22:02.946Z,19.13
2022-11-29T14:27:07.645Z,21.73
2022-11-29T14:32:22.536Z,19.33
2022-11-29T14:37:31.769Z,21.50
2022-11-29T14:42:33.595Z,22.83
2022-11-29T14:47:48.660Z,22.65
2022-11-29T14:52:51.511Z,24.60
2022-11-29T15:03:01.642Z,25.40
2022-11-29T15:08:17.393Z,24.98
2022-11-29T15:13:28.450Z,27.40
2022-11-29T15:19:03.054Z,26.88
2022-11-29T15:24:14.192Z,25.83
2022-11-29T15:29:19.442Z,27.50
2022-11-29T15:34:38.075Z,26.20
2022-11-29T15:39:40.143Z,26.67
2022-11-29T15:44:46.066Z,26.07
2022-11-29T15:49:48.877Z,25.33
2022-11-29T15:54:56.479Z,28.58
2022-11-29T16:00:02.219Z,27.33
2022-11-29T16:05:24.873Z,26.30
2022-11-29T16:10:36.230Z,27.65
2022-11-29T16:15:39.468Z,31.80
2022-11-29T16:20:42.903Z,29.48
2022-11-29T16:25:48.780Z,27.35
2022-11-29T16:30:50.532Z,25.80
2022-11-29T16:36:06.552Z,29.05
2022-11-29T16:41:23.048Z,27.77
2022-11-29T16:46:27.376Z,27.02
2022-11-29T16:51:48.141Z,28.50
2022-11-29T16:56:52.119Z,28.38
2022-11-29T17:01:54.084Z,28.10
2022-11-29T17:06:56.666Z,28.80
2022-11-29T17:12:01.500Z,30.35
2022-11-29T17:17:03.400Z,28.92
2022-11-29T17:22:05.248Z,29.20
2022-11-29T17:27:06.990Z,28.97
2022-11-29T17:32:08.779Z,27.92
2022-11-29T17:37:10.659Z,28.55
2022-11-29T17:42:12.563Z,29.73
2022-11-29T17:47:14.421Z,28.90
2022-11-29T17:52:16.224Z,28.55
2022-11-29T17:57:18.292Z,27.75
2022-11-29T18:02:20.228Z,29.05
2022-11-29T18:07:22.213Z,23.23
2022-11-29T18:12:24.314Z,24.95
2022-11-29T18:17:26.004Z,24.07
2022-11-29T18:22:27.664Z,26.02
2022-11-29T18:27:30.584Z,25.88
2022-11-29T18:32:33.162Z,27.70
2022-11-29T18:38:12.954Z,26.73
2022-11-29T18:42:56.517Z,25.25
2022-11-29T18:47:58.598Z,28.88
2022-11-29T18:53:00.376Z,26.30
2022-11-29T18:58:02.360Z,31.55
2022-11-29T19:03:04.165Z,30.23
2022-11-29T19:08:05.863Z,29.08
2022-11-29T19:13:07.876Z,30.92
2022-11-29T19:18:09.619Z,29.87
2022-11-29T19:23:11.457Z,27.07
2022-11-29T19:28:14.361Z,30.17
2022-11-29T19:33:16.303Z,29.63
2022-11-29T19:38:18.171Z,33.08
2022-11-29T19:43:20.179Z,30.93
2022-11-29T19:48:21.942Z,36.58
2022-11-29T19:53:23.642Z,31.30
2022-11-29T19:58:25.395Z,29.98
2022-11-29T20:03:29.787Z,31.10
2022-11-29T20:08:32.377Z,30.02
2022-11-29T20:13:34.109Z,30.98
2022-11-29T20:18:39.219Z,27.92
2022-11-29T20:23:42.193Z,28.50
2022-11-29T20:28:44.743Z,27.67
2022-11-29T20:33:48.262Z,31.67
2022-11-29T20:38:55.926Z,26.05
2022-11-29T20:44:01.585Z,27.17
2022-11-29T20:49:06.695Z,32.78
2022-11-29T20:54:11.070Z,28.63
2022-11-29T20:59:12.807Z,27.75
2022-11-29T21:04:17.717Z,27.35
2022-11-29T21:09:21.872Z,27.52
2022-11-29T21:14:24.358Z,27.40
2022-11-29T21:19:26.860Z,25.75
2022-11-29T21:25:02.563Z,27.52
2022-11-29T21:30:06.211Z,25.58
2022-11-29T21:35:08.098Z,24.80
2022-11-29T21:40:12.196Z,27.67
2022-11-29T21:45:15.778Z,27.08
2022-11-29T21:50:17.928Z,25.83
2022-11-29T21:55:19.825Z,26.57
2022-11-29T22:00:21.712Z,25.35
2022-11-29T22:05:23.368Z,27.53
2022-11-29T22:10:25.094Z,28.83
2022-11-29T22:15:27.378Z,25.80
2022-11-29T22:20:29.112Z,26.33
2022-11-29T22:25:30.840Z,28.00
2022-11-29T22:30:32.623Z,27.92
2022-11-29T22:35:34.304Z,25.90
2022-11-29T22:40:36.078Z,25.98
2022-11-29T22:45:37.797Z,26.35
2022-11-29T22:50:39.523Z,26.75
2022-11-29T22:55:41.220Z,25.17
2022-11-29T23:00:44.023Z,26.85
2022-11-29T23:05:45.884Z,25.90
2022-11-29T23:10:58.122Z,27.00
2022-11-29T23:16:01.193Z,28.00
2022-11-29T23:21:21.407Z,26.92
2022-11-29T23:26:29.411Z,26.17
2022-11-29T23:31:31.662Z,28.20
2022-11-29T23:36:33.647Z,26.85
2022-11-29T23:41:38.537Z,27.20
2022-11-29T23:46:40.314Z,27.23
2022-11-29T23:51:41.953Z,25.67
2022-11-29T23:56:43.574Z,25.17
